sensor_id;sensor_type;location;lat;lon;timestamp;pressure;altitude;pressure_sealevel;temperature;humidity
65880;BME280;52661;51.364;6.054;2022-11-24T00:01:52;100090.63;;;7.92;100.00
65880;BME280;52661;51.364;6.054;2022-11-24T00:04:17;100086.00;;;7.93;100.00
65880;BME280;52661;51.364;6.054;2022-11-24T00:06:43;100082.50;;;7.92;100.00
65880;BME280;52661;51.364;6.054;2022-11-24T00:09:09;100080.59;;;7.93;100.00
65880;BME280;52661;51.364;6.054;2022-11-24T00:11:35;100079.81;;;7.92;100.00
65880;BME280;52661;51.364;6.054;2022-11-24T00:14:01;100077.50;;;7.95;100.00
65880;BME280;52661;51.364;6.054;2022-11-24T00:16:32;100086.00;;;7.93;100.00
65880;BME280;52661;51.364;6.054;2022-11-24T00:18:59;100089.47;;;7.93;100.00
65880;BME280;52661;51.364;6.054;2022-11-24T00:21:27;100086.00;;;7.89;100.00
65880;BME280;52661;51.364;6.054;2022-11-24T00:23:52;100084.84;;;7.94;100.00
65880;BME280;52661;51.364;6.054;2022-11-24T00:26:24;100085.63;;;7.95;100.00
65880;BME280;52661;51.364;6.054;2022-11-24T00:28:50;100086.78;;;7.93;100.00
65880;BME280;52661;51.364;6.054;2022-11-24T00:31:22;100083.28;;;7.89;100.00
65880;BME280;52661;51.364;6.054;2022-11-24T00:33:49;100080.59;;;7.93;100.00
65880;BME280;52661;51.364;6.054;2022-11-24T00:36:15;100084.84;;;7.90;100.00
65880;BME280;52661;51.364;6.054;2022-11-24T00:38:42;100092.16;;;7.90;100.00
65880;BME280;52661;51.364;6.054;2022-11-24T00:41:08;100100.69;;;7.88;100.00
65880;BME280;52661;51.364;6.054;2022-11-24T00:43:33;100094.09;;;7.89;100.00
65880;BME280;52661;51.364;6.054;2022-11-24T00:45:59;100099.13;;;7.87;100.00
65880;BME280;52661;51.364;6.054;2022-11-24T00:48:24;100105.69;;;7.90;100.00
65880;BME280;52661;51.364;6.054;2022-11-24T00:50:56;100102.19;;;7.89;100.00
65880;BME280;52661;51.364;6.054;2022-11-24T00:53:22;100102.19;;;7.89;100.00
65880;BME280;52661;51.364;6.054;2022-11-24T00:55:48;100107.22;;;7.87;100.00
65880;BME280;52661;51.364;6.054;2022-11-24T00:58:14;100111.09;;;7.86;100.00
65880;BME280;52661;51.364;6.054;2022-11-24T01:00:39;100114.56;;;7.90;100.00
65880;BME280;52661;51.364;6.054;2022-11-24T01:03:05;100119.19;;;7.90;100.00
65880;BME280;52661;51.364;6.054;2022-11-24T01:05:30;100117.63;;;7.89;100.00
65880;BME280;52661;51.364;6.054;2022-11-24T01:07:55;100118.41;;;7.89;100.00
65880;BME280;52661;51.364;6.054;2022-11-24T01:10:21;100121.91;;;7.90;100.00
65880;BME280;52661;51.364;6.054;2022-11-24T01:12:46;100126.91;;;7.88;100.00
65880;BME280;52661;51.364;6.054;2022-11-24T01:15:12;100134.25;;;7.87;100.00
65880;BME280;52661;51.364;6.054;2022-11-24T01:17:37;100128.44;;;7.89;100.00
65880;BME280;52661;51.364;6.054;2022-11-24T01:20:03;100126.16;;;7.91;100.00
65880;BME280;52661;51.364;6.054;2022-11-24T01:22:29;100127.31;;;7.93;100.00
65880;BME280;52661;51.364;6.054;2022-11-24T01:24:54;100122.31;;;7.96;100.00
65880;BME280;52661;51.364;6.054;2022-11-24T01:27:19;100123.81;;;7.93;100.00
65880;BME280;52661;51.364;6.054;2022-11-24T01:29:45;100128.06;;;7.90;100.00
65880;BME280;52661;51.364;6.054;2022-11-24T01:32:10;100126.53;;;7.97;100.00
65880;BME280;52661;51.364;6.054;2022-11-24T01:34:35;100130.78;;;7.98;100.00
65880;BME280;52661;51.364;6.054;2022-11-24T01:37:01;100124.22;;;7.99;100.00
65880;BME280;52661;51.364;6.054;2022-11-24T01:39:26;100119.19;;;7.97;100.00
65880;BME280;52661;51.364;6.054;2022-11-24T01:41:51;100133.84;;;7.96;100.00
65880;BME280;52661;51.364;6.054;2022-11-24T01:44:25;100132.72;;;7.97;100.00
65880;BME280;52661;51.364;6.054;2022-11-24T01:47:22;100133.84;;;7.96;100.00
65880;BME280;52661;51.364;6.054;2022-11-24T01:49:57;100129.63;;;7.99;100.00
65880;BME280;52661;51.364;6.054;2022-11-24T01:52:28;100131.56;;;7.95;100.00
65880;BME280;52661;51.364;6.054;2022-11-24T01:54:59;100132.34;;;7.95;100.00
65880;BME280;52661;51.364;6.054;2022-11-24T01:57:28;100137.34;;;7.93;100.00
65880;BME280;52661;51.364;6.054;2022-11-24T02:00:00;100128.84;;;7.98;100.00
65880;BME280;52661;51.364;6.054;2022-11-24T02:02:27;100128.47;;;8.00;100.00
65880;BME280;52661;51.364;6.054;2022-11-24T02:04:54;100133.50;;;8.01;100.00
65880;BME280;52661;51.364;6.054;2022-11-24T02:07:20;100130.00;;;8.01;100.00
65880;BME280;52661;51.364;6.054;2022-11-24T02:09:50;100133.13;;;8.06;100.00
65880;BME280;52661;51.364;6.054;2022-11-24T02:12:17;100130.41;;;8.03;100.00
65880;BME280;52661;51.364;6.054;2022-11-24T02:14:43;100139.28;;;8.03;100.00
65880;BME280;52661;51.364;6.054;2022-11-24T02:17:09;100129.22;;;8.00;100.00
65880;BME280;52661;51.364;6.054;2022-11-24T02:25:53;100147.38;;;8.00;100.00
65880;BME280;52661;51.364;6.054;2022-11-24T02:27:59;100148.16;;;8.07;100.00
65880;BME280;52661;51.364;6.054;2022-11-24T02:30:26;100162.84;;;8.03;100.00
65880;BME280;52661;51.364;6.054;2022-11-24T02:32:52;100154.34;;;8.01;100.00
65880;BME280;52661;51.364;6.054;2022-11-24T02:35:17;100162.44;;;8.01;100.00
65880;BME280;52661;51.364;6.054;2022-11-24T02:37:43;100157.44;;;8.03;100.00
65880;BME280;52661;51.364;6.054;2022-11-24T02:40:08;100150.84;;;8.07;100.00
65880;BME280;52661;51.364;6.054;2022-11-24T02:42:41;100158.97;;;8.07;100.00
65880;BME280;52661;51.364;6.054;2022-11-24T02:45:09;100164.38;;;8.07;100.00
65880;BME280;52661;51.364;6.054;2022-11-24T02:47:36;100152.41;;;8.08;100.00
65880;BME280;52661;51.364;6.054;2022-11-24T02:50:01;100161.66;;;8.07;100.00
65880;BME280;52661;51.364;6.054;2022-11-24T02:52:27;100153.19;;;8.05;100.00
65880;BME280;52661;51.364;6.054;2022-11-24T02:54:52;100162.84;;;8.06;100.00
65880;BME280;52661;51.364;6.054;2022-11-24T02:57:17;100160.16;;;8.06;100.00
65880;BME280;52661;51.364;6.054;2022-11-24T02:59:43;100173.66;;;8.06;100.00
65880;BME280;52661;51.364;6.054;2022-11-24T03:02:08;100178.66;;;8.11;100.00
65880;BME280;52661;51.364;6.054;2022-11-24T03:04:34;100175.19;;;8.14;100.00
65880;BME280;52661;51.364;6.054;2022-11-24T03:07:00;100181.78;;;8.17;100.00
65880;BME280;52661;51.364;6.054;2022-11-24T03:09:25;100186.78;;;8.18;100.00
65880;BME280;52661;51.364;6.054;2022-11-24T03:11:50;100187.97;;;8.17;100.00
65880;BME280;52661;51.364;6.054;2022-11-24T03:14:16;100194.91;;;8.22;100.00
65880;BME280;52661;51.364;6.054;2022-11-24T03:16:41;100193.75;;;8.23;100.00
65880;BME280;52661;51.364;6.054;2022-11-24T03:19:06;100193.38;;;8.24;100.00
65880;BME280;52661;51.364;6.054;2022-11-24T03:21:32;100186.00;;;8.25;100.00
65880;BME280;52661;51.364;6.054;2022-11-24T03:23:57;100191.81;;;8.27;100.00
65880;BME280;52661;51.364;6.054;2022-11-24T03:26:23;100192.97;;;8.26;100.00
65880;BME280;52661;51.364;6.054;2022-11-24T03:28:50;100192.59;;;8.27;100.00
65880;BME280;52661;51.364;6.054;2022-11-24T03:31:16;100191.84;;;8.30;100.00
65880;BME280;52661;51.364;6.054;2022-11-24T03:33:42;100194.56;;;8.30;100.00
65880;BME280;52661;51.364;6.054;2022-11-24T03:36:07;100201.53;;;8.35;100.00
65880;BME280;52661;51.364;6.054;2022-11-24T03:38:33;100199.59;;;8.35;100.00
65880;BME280;52661;51.364;6.054;2022-11-24T03:40:58;100205.38;;;8.34;100.00
65880;BME280;52661;51.364;6.054;2022-11-24T03:43:24;100207.31;;;8.30;100.00
65880;BME280;52661;51.364;6.054;2022-11-24T03:45:49;100204.56;;;8.26;100.00
65880;BME280;52661;51.364;6.054;2022-11-24T03:48:16;100212.31;;;8.28;100.00
65880;BME280;52661;51.364;6.054;2022-11-24T03:50:42;100206.13;;;8.27;100.00
65880;BME280;52661;51.364;6.054;2022-11-24T03:53:08;100215.03;;;8.31;100.00
65880;BME280;52661;51.364;6.054;2022-11-24T03:55:34;100215.41;;;8.33;100.00
65880;BME280;52661;51.364;6.054;2022-11-24T03:58:00;100216.97;;;8.34;100.00
65880;BME280;52661;51.364;6.054;2022-11-24T04:00:26;100226.22;;;8.33;100.00
65880;BME280;52661;51.364;6.054;2022-11-24T04:02:52;100223.53;;;8.37;100.00
65880;BME280;52661;51.364;6.054;2022-11-24T04:05:17;100219.69;;;8.38;100.00
65880;BME280;52661;51.364;6.054;2022-11-24T04:07:43;100225.47;;;8.40;100.00
65880;BME280;52661;51.364;6.054;2022-11-24T04:10:08;100240.91;;;8.43;100.00
65880;BME280;52661;51.364;6.054;2022-11-24T04:12:34;100237.47;;;8.43;100.00
65880;BME280;52661;51.364;6.054;2022-11-24T04:15:12;100235.50;;;8.39;100.00
65880;BME280;52661;51.364;6.054;2022-11-24T04:17:38;100233.97;;;8.38;100.00
65880;BME280;52661;51.364;6.054;2022-11-24T04:20:04;100234.34;;;8.40;100.00
65880;BME280;52661;51.364;6.054;2022-11-24T04:22:29;100231.28;;;8.38;100.00
65880;BME280;52661;51.364;6.054;2022-11-24T04:24:54;100222.75;;;8.44;100.00
65880;BME280;52661;51.364;6.054;2022-11-24T04:27:20;100233.56;;;8.40;100.00
65880;BME280;52661;51.364;6.054;2022-11-24T04:29:45;100233.19;;;8.38;100.00
65880;BME280;52661;51.364;6.054;2022-11-24T04:32:10;100234.75;;;8.35;100.00
65880;BME280;52661;51.364;6.054;2022-11-24T04:34:36;100254.06;;;8.34;100.00
65880;BME280;52661;51.364;6.054;2022-11-24T04:37:01;100260.59;;;8.36;100.00
65880;BME280;52661;51.364;6.054;2022-11-24T04:39:26;100250.56;;;8.30;100.00
65880;BME280;52661;51.364;6.054;2022-11-24T04:41:52;100252.91;;;8.31;100.00
65880;BME280;52661;51.364;6.054;2022-11-24T04:44:17;100252.09;;;8.27;100.00
65880;BME280;52661;51.364;6.054;2022-11-24T04:46:43;100252.44;;;8.26;100.00
65880;BME280;52661;51.364;6.054;2022-11-24T04:49:08;100251.31;;;8.27;100.00
65880;BME280;52661;51.364;6.054;2022-11-24T04:51:38;100249.38;;;8.24;100.00
65880;BME280;52661;51.364;6.054;2022-11-24T04:54:04;100258.63;;;8.23;100.00
65880;BME280;52661;51.364;6.054;2022-11-24T04:56:30;100258.25;;;8.21;100.00
65880;BME280;52661;51.364;6.054;2022-11-24T04:58:55;100262.09;;;8.20;100.00
65880;BME280;52661;51.364;6.054;2022-11-24T05:01:21;100266.38;;;8.21;100.00
65880;BME280;52661;51.364;6.054;2022-11-24T05:03:46;100264.41;;;8.18;100.00
65880;BME280;52661;51.364;6.054;2022-11-24T05:06:11;100270.97;;;8.17;100.00
65880;BME280;52661;51.364;6.054;2022-11-24T05:08:37;100264.81;;;8.16;100.00
65880;BME280;52661;51.364;6.054;2022-11-24T05:11:05;100265.56;;;8.13;100.00
65880;BME280;52661;51.364;6.054;2022-11-24T05:13:31;100270.56;;;8.15;100.00
65880;BME280;52661;51.364;6.054;2022-11-24T05:15:57;100274.84;;;8.16;100.00
65880;BME280;52661;51.364;6.054;2022-11-24T05:18:24;100278.31;;;8.16;100.00
65880;BME280;52661;51.364;6.054;2022-11-24T05:20:49;100280.25;;;8.16;100.00
65880;BME280;52661;51.364;6.054;2022-11-24T05:23:14;100284.09;;;8.18;100.00
65880;BME280;52661;51.364;6.054;2022-11-24T05:25:40;100289.13;;;8.16;100.00
65880;BME280;52661;51.364;6.054;2022-11-24T05:28:07;100280.63;;;8.18;100.00
65880;BME280;52661;51.364;6.054;2022-11-24T05:30:36;100286.81;;;8.18;100.00
65880;BME280;52661;51.364;6.054;2022-11-24T05:33:06;100286.44;;;8.16;100.00
65880;BME280;52661;51.364;6.054;2022-11-24T05:35:33;100298.78;;;8.14;100.00
65880;BME280;52661;51.364;6.054;2022-11-24T05:37:59;100306.47;;;8.12;100.00
65880;BME280;52661;51.364;6.054;2022-11-24T05:40:24;100303.41;;;8.10;100.00
65880;BME280;52661;51.364;6.054;2022-11-24T05:42:50;100307.25;;;8.09;100.00
65880;BME280;52661;51.364;6.054;2022-11-24T05:45:19;100308.78;;;8.06;100.00
65880;BME280;52661;51.364;6.054;2022-11-24T05:47:46;100320.34;;;8.07;100.00
65880;BME280;52661;51.364;6.054;2022-11-24T05:50:14;100315.75;;;8.14;100.00
65880;BME280;52661;51.364;6.054;2022-11-24T05:52:39;100315.00;;;8.10;100.00
65880;BME280;52661;51.364;6.054;2022-11-24T05:55:06;100315.72;;;8.07;100.00
65880;BME280;52661;51.364;6.054;2022-11-24T05:57:32;100328.47;;;8.07;100.00
65880;BME280;52661;51.364;6.054;2022-11-24T05:59:58;100323.81;;;8.00;100.00
65880;BME280;52661;51.364;6.054;2022-11-24T06:02:23;100337.72;;;7.99;100.00
65880;BME280;52661;51.364;6.054;2022-11-24T06:04:49;100344.63;;;7.96;100.00
65880;BME280;52661;51.364;6.054;2022-11-24T06:07:14;100337.28;;;7.93;100.00
65880;BME280;52661;51.364;6.054;2022-11-24T06:09:41;100346.97;;;7.94;100.00
65880;BME280;52661;51.364;6.054;2022-11-24T06:12:08;100349.28;;;7.96;100.00
65880;BME280;52661;51.364;6.054;2022-11-24T06:14:34;100354.31;;;7.97;100.00
65880;BME280;52661;51.364;6.054;2022-11-24T06:16:59;100350.44;;;7.98;100.00
65880;BME280;52661;51.364;6.054;2022-11-24T06:19:25;100363.19;;;7.98;100.00
65880;BME280;52661;51.364;6.054;2022-11-24T06:21:50;100367.81;;;7.97;100.00
65880;BME280;52661;51.364;6.054;2022-11-24T06:24:15;100361.25;;;7.98;100.00
65880;BME280;52661;51.364;6.054;2022-11-24T06:26:41;100377.47;;;7.98;100.00
65880;BME280;52661;51.364;6.054;2022-11-24T06:29:06;100369.75;;;8.00;100.00
65880;BME280;52661;51.364;6.054;2022-11-24T06:31:32;100375.16;;;8.00;100.00
65880;BME280;52661;51.364;6.054;2022-11-24T06:33:58;100374.00;;;8.01;100.00
65880;BME280;52661;51.364;6.054;2022-11-24T06:36:23;100376.72;;;8.01;100.00
65880;BME280;52661;51.364;6.054;2022-11-24T06:38:49;100393.31;;;8.03;100.00
65880;BME280;52661;51.364;6.054;2022-11-24T06:41:15;100393.31;;;8.03;100.00
65880;BME280;52661;51.364;6.054;2022-11-24T06:43:41;100399.13;;;8.05;100.00
65880;BME280;52661;51.364;6.054;2022-11-24T06:46:07;100404.53;;;8.05;100.00
65880;BME280;52661;51.364;6.054;2022-11-24T06:48:32;100411.09;;;8.04;100.00
65880;BME280;52661;51.364;6.054;2022-11-24T06:50:59;100432.38;;;8.09;100.00
65880;BME280;52661;51.364;6.054;2022-11-24T06:53:25;100418.84;;;8.09;100.00
65880;BME280;52661;51.364;6.054;2022-11-24T06:55:50;100422.34;;;8.10;100.00
65880;BME280;52661;51.364;6.054;2022-11-24T06:58:16;100433.13;;;8.06;100.00
65880;BME280;52661;51.364;6.054;2022-11-24T07:00:42;100431.59;;;8.09;100.00
65880;BME280;52661;51.364;6.054;2022-11-24T07:03:14;100443.19;;;8.13;100.00
65880;BME280;52661;51.364;6.054;2022-11-24T07:05:39;100445.13;;;8.12;100.00
65880;BME280;52661;51.364;6.054;2022-11-24T07:08:04;100459.00;;;8.11;100.00
65880;BME280;52661;51.364;6.054;2022-11-24T07:10:30;100467.88;;;8.08;100.00
65880;BME280;52661;51.364;6.054;2022-11-24T07:12:55;100463.59;;;8.07;100.00
65880;BME280;52661;51.364;6.054;2022-11-24T07:15:20;100473.28;;;8.08;100.00
65880;BME280;52661;51.364;6.054;2022-11-24T07:17:46;100477.50;;;8.05;100.00
65880;BME280;52661;51.364;6.054;2022-11-24T07:20:11;100482.91;;;8.02;100.00
65880;BME280;52661;51.364;6.054;2022-11-24T07:22:36;100484.47;;;8.03;100.00
65880;BME280;52661;51.364;6.054;2022-11-24T07:25:02;100475.94;;;8.01;100.00
65880;BME280;52661;51.364;6.054;2022-11-24T07:27:31;100491.75;;;7.95;100.00
65880;BME280;52661;51.364;6.054;2022-11-24T07:29:56;100506.41;;;7.94;100.00
65880;BME280;52661;51.364;6.054;2022-11-24T07:32:21;100508.28;;;7.90;100.00
65880;BME280;52661;51.364;6.054;2022-11-24T07:34:47;100507.50;;;7.89;100.00
65880;BME280;52661;51.364;6.054;2022-11-24T07:37:12;100517.53;;;7.89;100.00
65880;BME280;52661;51.364;6.054;2022-11-24T07:39:37;100519.50;;;7.88;100.00
65880;BME280;52661;51.364;6.054;2022-11-24T07:42:02;100524.13;;;7.88;100.00
65880;BME280;52661;51.364;6.054;2022-11-24T07:44:29;100531.44;;;7.87;100.00
65880;BME280;52661;51.364;6.054;2022-11-24T07:46:55;100534.13;;;7.84;100.00
65880;BME280;52661;51.364;6.054;2022-11-24T07:49:20;100538.31;;;7.81;100.00
65880;BME280;52661;51.364;6.054;2022-11-24T07:51:45;100538.72;;;7.80;100.00
65880;BME280;52661;51.364;6.054;2022-11-24T07:54:10;100548.75;;;7.79;100.00
65880;BME280;52661;51.364;6.054;2022-11-24T07:56:36;100542.16;;;7.77;100.00
65880;BME280;52661;51.364;6.054;2022-11-24T07:59:02;100547.53;;;7.73;100.00
65880;BME280;52661;51.364;6.054;2022-11-24T08:01:27;100560.22;;;7.69;100.00
65880;BME280;52661;51.364;6.054;2022-11-24T08:03:52;100557.91;;;7.68;100.00
65880;BME280;52661;51.364;6.054;2022-11-24T08:06:18;100559.06;;;7.67;100.00
65880;BME280;52661;51.364;6.054;2022-11-24T08:08:45;100569.88;;;7.67;100.00
65880;BME280;52661;51.364;6.054;2022-11-24T08:11:12;100571.38;;;7.64;100.00
65880;BME280;52661;51.364;6.054;2022-11-24T08:13:38;100583.72;;;7.65;100.00
65880;BME280;52661;51.364;6.054;2022-11-24T08:16:08;100590.31;;;7.68;100.00
65880;BME280;52661;51.364;6.054;2022-11-24T08:18:36;100594.56;;;7.69;100.00
65880;BME280;52661;51.364;6.054;2022-11-24T08:21:02;100596.13;;;7.70;100.00
65880;BME280;52661;51.364;6.054;2022-11-24T08:23:29;100602.34;;;7.74;100.00
65880;BME280;52661;51.364;6.054;2022-11-24T08:25:54;100606.22;;;7.76;100.00
65880;BME280;52661;51.364;6.054;2022-11-24T08:28:21;100611.63;;;7.76;100.00
65880;BME280;52661;51.364;6.054;2022-11-24T08:30:46;100610.81;;;7.72;100.00
65880;BME280;52661;51.364;6.054;2022-11-24T08:33:12;100616.59;;;7.74;100.00
65880;BME280;52661;51.364;6.054;2022-11-24T08:35:37;100616.59;;;7.74;100.00
65880;BME280;52661;51.364;6.054;2022-11-24T08:38:03;100624.00;;;7.77;100.00
65880;BME280;52661;51.364;6.054;2022-11-24T08:40:29;100622.03;;;7.78;100.00
65880;BME280;52661;51.364;6.054;2022-11-24T08:42:58;100626.34;;;7.82;100.00
65880;BME280;52661;51.364;6.054;2022-11-24T08:45:24;100628.66;;;7.80;100.00
65880;BME280;52661;51.364;6.054;2022-11-24T08:47:53;100642.97;;;7.84;100.00
65880;BME280;52661;51.364;6.054;2022-11-24T08:50:20;100646.50;;;7.88;100.00
65880;BME280;52661;51.364;6.054;2022-11-24T08:52:46;100648.81;;;7.90;100.00
65880;BME280;52661;51.364;6.054;2022-11-24T08:55:11;100651.53;;;7.93;100.00
65880;BME280;52661;51.364;6.054;2022-11-24T08:57:37;100660.47;;;7.98;100.00
65880;BME280;52661;51.364;6.054;2022-11-24T09:00:06;100664.06;;;8.09;100.00
65880;BME280;52661;51.364;6.054;2022-11-24T09:02:31;100665.94;;;8.05;100.00
65880;BME280;52661;51.364;6.054;2022-11-24T09:04:57;100668.69;;;8.08;100.00
65880;BME280;52661;51.364;6.054;2022-11-24T09:07:22;100674.50;;;8.10;100.00
65880;BME280;52661;51.364;6.054;2022-11-24T09:09:48;100675.28;;;8.14;100.00
65880;BME280;52661;51.364;6.054;2022-11-24T09:12:13;100675.34;;;8.21;100.00
65880;BME280;52661;51.364;6.054;2022-11-24T09:14:38;100686.19;;;8.25;100.00
65880;BME280;52661;51.364;6.054;2022-11-24T09:17:04;100679.34;;;8.31;100.00
65880;BME280;52661;51.364;6.054;2022-11-24T09:19:29;100686.69;;;8.30;100.00
65880;BME280;52661;51.364;6.054;2022-11-24T09:21:54;100688.28;;;8.35;100.00
65880;BME280;52661;51.364;6.054;2022-11-24T09:24:20;100693.28;;;8.36;100.00
65880;BME280;52661;51.364;6.054;2022-11-24T09:26:45;100697.94;;;8.39;100.00
65880;BME280;52661;51.364;6.054;2022-11-24T09:29:10;100701.06;;;8.42;100.00
65880;BME280;52661;51.364;6.054;2022-11-24T09:31:37;100688.38;;;8.49;100.00
65880;BME280;52661;51.364;6.054;2022-11-24T09:34:08;100705.41;;;8.53;100.00
65880;BME280;52661;51.364;6.054;2022-11-24T09:36:35;100715.53;;;8.63;100.00
65880;BME280;52661;51.364;6.054;2022-11-24T09:39:01;100718.25;;;8.63;100.00
65880;BME280;52661;51.364;6.054;2022-11-24T09:47:33;100721.84;;;8.78;100.00
65880;BME280;52661;51.364;6.054;2022-11-24T09:53:09;100737.00;;;8.86;100.00
65880;BME280;52661;51.364;6.054;2022-11-24T09:58:08;100735.09;;;8.97;100.00
65880;BME280;52661;51.364;6.054;2022-11-24T10:00:36;100741.69;;;8.96;100.00
65880;BME280;52661;51.364;6.054;2022-11-24T10:03:02;100740.94;;;8.99;100.00
65880;BME280;52661;51.364;6.054;2022-11-24T10:05:29;100750.25;;;9.05;100.00
65880;BME280;52661;51.364;6.054;2022-11-24T10:10:56;100751.88;;;9.17;100.00
65880;BME280;52661;51.364;6.054;2022-11-24T10:13:29;100754.25;;;9.22;100.00
65880;BME280;52661;51.364;6.054;2022-11-24T10:18:56;100765.47;;;9.27;100.00
65880;BME280;52661;51.364;6.054;2022-11-24T10:26:54;100766.34;;;9.42;100.00
65880;BME280;52661;51.364;6.054;2022-11-24T10:29:25;100772.94;;;9.48;100.00
65880;BME280;52661;51.364;6.054;2022-11-24T10:31:54;100775.69;;;9.55;100.00
65880;BME280;52661;51.364;6.054;2022-11-24T10:34:35;100780.41;;;9.62;100.00
65880;BME280;52661;51.364;6.054;2022-11-24T10:39:44;100785.88;;;9.72;100.00
65880;BME280;52661;51.364;6.054;2022-11-24T10:42:38;100784.69;;;9.73;100.00
65880;BME280;52661;51.364;6.054;2022-11-24T10:45:12;100790.13;;;9.80;100.00
65880;BME280;52661;51.364;6.054;2022-11-24T10:47:38;100793.63;;;9.81;100.00
65880;BME280;52661;51.364;6.054;2022-11-24T10:50:26;100797.94;;;9.93;100.00
65880;BME280;52661;51.364;6.054;2022-11-24T10:58:16;100804.56;;;10.06;98.65
65880;BME280;52661;51.364;6.054;2022-11-24T11:00:41;100802.28;;;10.11;99.00
65880;BME280;52661;51.364;6.054;2022-11-24T11:03:19;100805.03;;;10.22;98.68
65880;BME280;52661;51.364;6.054;2022-11-24T11:08:24;100810.13;;;10.34;97.88
65880;BME280;52661;51.364;6.054;2022-11-24T11:13:31;100805.09;;;10.36;96.92
65880;BME280;52661;51.364;6.054;2022-11-24T11:15:57;100802.78;;;10.38;95.34
65880;BME280;52661;51.364;6.054;2022-11-24T11:18:29;100805.09;;;10.43;95.92
65880;BME280;52661;51.364;6.054;2022-11-24T11:20:58;100811.66;;;10.42;96.57
65880;BME280;52661;51.364;6.054;2022-11-24T11:23:32;100808.22;;;10.49;95.74
65880;BME280;52661;51.364;6.054;2022-11-24T11:26:18;100807.06;;;10.57;95.03
65880;BME280;52661;51.364;6.054;2022-11-24T11:29:03;100809.41;;;10.62;94.91
65880;BME280;52661;51.364;6.054;2022-11-24T11:31:37;100802.03;;;10.66;93.33
65880;BME280;52661;51.364;6.054;2022-11-24T11:39:05;100808.25;;;10.91;92.72
65880;BME280;52661;51.364;6.054;2022-11-24T11:41:36;100805.91;;;11.00;91.91
65880;BME280;52661;51.364;6.054;2022-11-24T11:46:57;100809.81;;;10.96;91.31
65880;BME280;52661;51.364;6.054;2022-11-24T11:49:22;100802.81;;;11.05;90.50
65880;BME280;52661;51.364;6.054;2022-11-24T11:54:51;100796.59;;;11.08;90.65
65880;BME280;52661;51.364;6.054;2022-11-24T11:57:40;100806.28;;;11.27;90.70
65880;BME280;52661;51.364;6.054;2022-11-24T12:00:16;100797.75;;;11.35;90.68
65880;BME280;52661;51.364;6.054;2022-11-24T12:05:45;100797.31;;;11.48;89.46
65880;BME280;52661;51.364;6.054;2022-11-24T12:18:54;100790.28;;;11.68;87.79
65880;BME280;52661;51.364;6.054;2022-11-24T12:21:33;100789.50;;;11.74;87.84
65880;BME280;52661;51.364;6.054;2022-11-24T12:26:52;100799.22;;;11.75;87.16
65880;BME280;52661;51.364;6.054;2022-11-24T12:32:34;100800.38;;;11.67;87.84
65880;BME280;52661;51.364;6.054;2022-11-24T12:43:18;100806.63;;;11.61;86.62
65880;BME280;52661;51.364;6.054;2022-11-24T12:46:07;100810.88;;;11.58;87.41
65880;BME280;52661;51.364;6.054;2022-11-24T12:49:09;100812.81;;;11.58;87.22
65880;BME280;52661;51.364;6.054;2022-11-24T12:51:41;100814.75;;;11.68;88.32
65880;BME280;52661;51.364;6.054;2022-11-24T12:54:14;100810.81;;;11.83;87.69
65880;BME280;52661;51.364;6.054;2022-11-24T12:56:58;100817.44;;;11.82;87.27
65880;BME280;52661;51.364;6.054;2022-11-24T12:59:38;100814.34;;;11.73;87.25
65880;BME280;52661;51.364;6.054;2022-11-24T13:02:26;100819.03;;;11.72;87.34
65880;BME280;52661;51.364;6.054;2022-11-24T13:07:55;100826.78;;;11.70;87.13
65880;BME280;52661;51.364;6.054;2022-11-24T13:10:27;100820.97;;;11.61;86.41
65880;BME280;52661;51.364;6.054;2022-11-24T13:12:57;100820.97;;;11.58;87.75
65880;BME280;52661;51.364;6.054;2022-11-24T13:15:23;100816.31;;;11.58;87.28
65880;BME280;52661;51.364;6.054;2022-11-24T13:17:49;100816.31;;;11.58;87.64
65880;BME280;52661;51.364;6.054;2022-11-24T13:22:54;100808.13;;;11.69;88.69
65880;BME280;52661;51.364;6.054;2022-11-24T13:25:28;100812.78;;;11.65;87.68
65880;BME280;52661;51.364;6.054;2022-11-24T13:27:55;100811.66;;;11.62;87.63
65880;BME280;52661;51.364;6.054;2022-11-24T13:38:40;100814.81;;;11.50;88.21
65880;BME280;52661;51.364;6.054;2022-11-24T13:41:09;100810.53;;;11.46;87.91
65880;BME280;52661;51.364;6.054;2022-11-24T13:43:35;100815.19;;;11.42;87.78
65880;BME280;52661;51.364;6.054;2022-11-24T13:46:02;100818.28;;;11.36;87.85
65880;BME280;52661;51.364;6.054;2022-11-24T13:58:35;100808.97;;;11.41;89.09
65880;BME280;52661;51.364;6.054;2022-11-24T14:01:02;100814.78;;;11.47;89.12
65880;BME280;52661;51.364;6.054;2022-11-24T14:03:42;100813.25;;;11.42;88.80
65880;BME280;52661;51.364;6.054;2022-11-24T14:06:20;100810.91;;;11.41;89.39
65880;BME280;52661;51.364;6.054;2022-11-24T14:08:50;100806.66;;;11.36;89.38
65880;BME280;52661;51.364;6.054;2022-11-24T14:11:16;100809.78;;;11.34;90.61
65880;BME280;52661;51.364;6.054;2022-11-24T14:13:42;100807.06;;;11.34;90.47
65880;BME280;52661;51.364;6.054;2022-11-24T14:18:34;100808.22;;;11.33;90.82
65880;BME280;52661;51.364;6.054;2022-11-24T14:21:21;100808.63;;;11.28;90.79
65880;BME280;52661;51.364;6.054;2022-11-24T14:23:54;100802.03;;;11.22;90.67
65880;BME280;52661;51.364;6.054;2022-11-24T14:26:25;100795.81;;;11.22;90.70
65880;BME280;52661;51.364;6.054;2022-11-24T14:28:52;100791.56;;;11.21;91.47
65880;BME280;52661;51.364;6.054;2022-11-24T14:31:21;100788.84;;;11.14;91.27
65880;BME280;52661;51.364;6.054;2022-11-24T14:33:47;100803.59;;;11.09;91.50
65880;BME280;52661;51.364;6.054;2022-11-24T14:36:13;100803.59;;;11.02;91.26
65880;BME280;52661;51.364;6.054;2022-11-24T14:38:39;100796.22;;;11.03;91.98
65880;BME280;52661;51.364;6.054;2022-11-24T14:41:22;100797.38;;;10.98;92.42